Time;durP1;ratioP1;P1;durP2;ratioP2;P2;SDS_P1;SDS_P2;PMS_P1;PMS_P2;Temp;Humidity;BMP_temperature;BMP_pressure;BME280_temperature;BME280_humidity;BME280_pressure;Samples;Min_cycle;Max_cycle;Signal;HPM_P1;HPM_P2
2022/03/05 00:02:13;;;;;;;0.75;0.75;;;;;;;23.48;6.21;101604.66;5033742;28;20030;-73
2022/03/05 00:04:39;;;;;;;0.88;0.60;;;;;;;23.46;6.39;101613.06;5033783;28;20495;-73
2022/03/05 00:07:04;;;;;;;0.50;0.50;;;;;;;23.46;6.29;101606.75;5033291;28;20490;-75
2022/03/05 00:09:30;;;;;;;0.60;0.60;;;;;;;23.44;6.31;101609.78;5033726;28;20030;-74
2022/03/05 00:11:55;;;;;;;0.60;0.60;;;;;;;23.44;6.24;101599.66;5033581;28;20423;-74
2022/03/05 00:14:20;;;;;;;0.63;0.63;;;;;;;23.40;6.08;101593.06;5033620;28;20037;-74
2022/03/05 00:16:46;;;;;;;0.70;0.70;;;;;;;23.46;6.05;101601.31;5034041;28;20461;-73
2022/03/05 00:19:11;;;;;;;0.77;0.77;;;;;;;23.43;6.11;101584.38;5033558;28;20095;-74
2022/03/05 00:21:37;;;;;;;0.50;0.50;;;;;;;23.44;6.18;101605.13;5033569;28;20032;-75
2022/03/05 00:24:02;;;;;;;0.50;0.50;;;;;;;23.41;6.14;101588.44;5033067;28;20520;-75
2022/03/05 00:26:27;;;;;;;0.50;0.50;;;;;;;23.41;5.94;101597.44;5033207;28;20033;-75
2022/03/05 00:28:53;;;;;;;1.08;0.77;;;;;;;23.42;5.93;101593.63;5033425;28;20071;-74
2022/03/05 00:31:18;;;;;;;0.65;0.65;;;;;;;23.42;6.13;101596.38;5037405;28;20025;-74
2022/03/05 00:33:43;;;;;;;0.50;0.50;;;;;;;23.41;6.06;101581.06;5035464;28;20028;-75
2022/03/05 00:36:09;;;;;;;0.52;0.52;;;;;;;23.42;6.25;101590.06;5052970;28;20116;-74
2022/03/05 00:38:34;;;;;;;0.68;0.60;;;;;;;23.42;5.99;101580.00;5053292;28;20025;-74
2022/03/05 00:41:00;;;;;;;0.88;0.80;;;;;;;23.41;6.18;101585.69;5053320;28;20083;-75
2022/03/05 00:43:25;;;;;;;0.57;0.57;;;;;;;23.41;6.06;101578.34;5053346;28;20025;-74
2022/03/05 00:45:51;;;;;;;0.75;0.65;;;;;;;23.41;6.07;101572.88;5052939;28;20497;-75
2022/03/05 00:48:16;;;;;;;0.50;0.50;;;;;;;23.42;6.05;101576.41;5052871;28;20040;-74
2022/03/05 00:50:41;;;;;;;0.50;0.50;;;;;;;23.41;6.07;101572.88;5053104;28;20459;-74
2022/03/05 00:53:07;;;;;;;0.70;0.60;;;;;;;23.39;5.88;101575.03;5055570;28;20044;-74
2022/03/05 00:55:33;;;;;;;0.50;0.50;;;;;;;23.41;6.06;101572.88;5057173;28;20051;-74
2022/03/05 00:57:59;;;;;;;0.75;0.45;;;;;;;23.41;6.01;101567.41;5056804;28;20064;-74
2022/03/05 01:00:24;;;;;;;0.63;0.63;;;;;;;23.41;5.99;101566.59;5056922;28;20028;-74
2022/03/05 01:02:50;;;;;;;0.50;0.50;;;;;;;23.39;5.84;101564.13;5056982;28;20021;-73
2022/03/05 01:05:15;;;;;;;0.70;0.70;;;;;;;23.40;6.06;101567.66;5056858;28;20414;-75
2022/03/05 01:07:41;;;;;;;0.60;0.60;;;;;;;23.40;5.81;101564.94;5056936;28;20025;-75
2022/03/05 01:10:06;;;;;;;0.60;0.60;;;;;;;23.39;5.73;101558.66;5056852;28;20035;-74
2022/03/05 01:12:33;;;;;;;0.40;0.40;;;;;;;23.39;5.90;101555.94;5056455;28;20029;-73
2022/03/05 01:14:58;;;;;;;0.50;0.50;;;;;;;23.36;5.86;101561.88;5039004;28;20056;-74
2022/03/05 01:17:24;;;;;;;0.52;0.52;;;;;;;23.37;5.84;101563.53;5056767;28;20427;-74
2022/03/05 01:19:49;;;;;;;0.40;0.40;;;;;;;23.39;5.69;101568.75;5056711;28;20034;-75
2022/03/05 01:22:15;;;;;;;0.50;0.50;;;;;;;23.36;5.84;101570.06;5038241;28;20412;-75
2022/03/05 01:24:40;;;;;;;0.40;0.40;;;;;;;23.37;5.67;101566.28;5056619;28;20021;-74
2022/03/05 01:27:05;;;;;;;0.40;0.40;;;;;;;23.36;5.82;101567.31;5056699;28;20037;-74
2022/03/05 01:29:31;;;;;;;0.50;0.50;;;;;;;23.38;5.70;101572.53;5056234;28;20025;-75
2022/03/05 01:31:56;;;;;;;0.50;0.50;;;;;;;23.38;5.80;101573.34;5056388;28;20017;-74
2022/03/05 01:34:22;;;;;;;0.60;0.60;;;;;;;23.36;5.58;101570.06;5056368;28;20025;-74
2022/03/05 01:36:47;;;;;;;0.50;0.50;;;;;;;23.36;5.66;101569.22;5056151;28;20372;-74
2022/03/05 01:39:12;;;;;;;0.50;0.50;;;;;;;23.35;5.68;101578.47;5056417;28;20071;-75
2022/03/05 01:41:38;;;;;;;0.50;0.50;;;;;;;23.31;5.66;101564.50;5056160;28;20021;-75
2022/03/05 01:44:04;;;;;;;0.50;0.50;;;;;;;23.35;5.58;101571.16;5056369;28;20025;-75
2022/03/05 01:46:34;;;;;;;0.45;0.45;;;;;;;23.32;5.49;101574.34;5056032;28;20047;-75
2022/03/05 01:49:01;;;;;;;0.55;0.55;;;;;;;23.32;5.68;101568.91;5056074;28;20423;-75
2022/03/05 01:51:27;;;;;;;0.40;0.40;;;;;;;23.33;5.67;101576.00;5056317;28;20028;-75
2022/03/05 01:53:52;;;;;;;0.60;0.60;;;;;;;23.35;5.58;101578.47;5056146;28;20025;-73
2022/03/05 01:56:17;;;;;;;0.55;0.50;;;;;;;23.32;5.60;101571.63;5055924;28;20487;-75
2022/03/05 01:58:43;;;;;;;0.60;0.60;;;;;;;23.32;5.46;101579.81;5037892;28;20055;-74
2022/03/05 02:01:08;;;;;;;0.50;0.50;;;;;;;23.30;5.57;101581.97;5038272;28;20036;-75
2022/03/05 02:03:36;;;;;;;0.73;0.60;;;;;;;23.33;5.41;101576.00;5055208;28;20394;-74
2022/03/05 02:06:01;;;;;;;0.40;0.40;;;;;;;23.31;5.58;101580.88;5055652;28;20029;-73
2022/03/05 02:08:27;;;;;;;0.60;0.60;;;;;;;23.32;5.44;101573.50;5055555;28;20490;-75
2022/03/05 02:10:52;;;;;;;0.55;0.55;;;;;;;23.31;5.47;101580.88;5055724;28;20033;-75
2022/03/05 02:13:18;;;;;;;0.40;0.40;;;;;;;23.31;5.47;101578.13;5055763;28;20033;-75
2022/03/05 02:15:43;;;;;;;0.45;0.45;;;;;;;23.31;5.37;101585.50;5037632;28;20540;-75
2022/03/05 02:18:09;;;;;;;0.40;0.40;;;;;;;23.29;5.31;101580.28;5055748;28;20032;-75
2022/03/05 02:20:34;;;;;;;0.60;0.60;;;;;;;23.28;5.24;101577.81;5055781;28;20024;-75
2022/03/05 02:23:00;;;;;;;0.50;0.50;;;;;;;23.30;5.30;101586.56;5057197;28;20056;-74
2022/03/05 02:25:25;;;;;;;0.52;0.52;;;;;;;23.28;5.37;101578.63;5059074;28;20371;-75
2022/03/05 02:27:50;;;;;;;0.47;0.47;;;;;;;23.25;5.37;101571.78;5059817;28;20044;-75
2022/03/05 02:30:16;;;;;;;0.50;0.50;;;;;;;23.28;5.34;101562.25;5041613;28;20033;-75
2022/03/05 02:32:41;;;;;;;0.50;0.50;;;;;;;23.29;5.32;101568.56;5059084;28;20028;-75
2022/03/05 02:35:07;;;;;;;0.50;0.50;;;;;;;23.29;5.41;101571.28;5059729;28;20494;-75
2022/03/05 02:37:32;;;;;;;0.70;0.40;;;;;;;23.29;5.17;101568.56;5059943;28;20036;-75
2022/03/05 02:39:58;;;;;;;0.50;0.50;;;;;;;23.28;5.34;101559.53;5060053;28;20463;-75
2022/03/05 02:42:23;;;;;;;0.45;0.45;;;;;;;23.26;5.23;101553.50;5063383;28;20029;-74
2022/03/05 02:44:48;;;;;;;0.47;0.47;;;;;;;23.25;5.12;101562.78;5061785;28;20047;-74
2022/03/05 02:47:14;;;;;;;0.43;0.43;;;;;;;23.27;5.22;101566.06;5060754;28;20039;-74
2022/03/05 02:49:39;;;;;;;0.40;0.40;;;;;;;23.27;5.28;101566.06;5060682;28;20439;-74
2022/03/05 02:52:05;;;;;;;0.40;0.40;;;;;;;23.27;5.12;101560.63;5060802;28;20025;-74
2022/03/05 02:54:30;;;;;;;0.50;0.50;;;;;;;23.24;5.21;101561.09;5063444;28;20040;-74
2022/03/05 02:56:56;;;;;;;0.45;0.45;;;;;;;23.26;5.15;101561.69;5058740;28;20029;-74
2022/03/05 02:59:21;;;;;;;0.52;0.50;;;;;;;23.25;5.11;101552.69;5054792;28;20028;-75
2022/03/05 03:01:47;;;;;;;0.40;0.40;;;;;;;23.25;5.29;101551.88;5054519;28;20028;-73
2022/03/05 03:04:12;;;;;;;0.40;0.40;;;;;;;23.23;5.14;101564.88;5054780;28;20025;-74
2022/03/05 03:06:38;;;;;;;0.50;0.50;;;;;;;23.23;5.28;101560.28;5054646;28;20421;-73
2022/03/05 03:09:03;;;;;;;0.30;0.30;;;;;;;23.26;4.98;101556.22;5054583;28;20028;-74
2022/03/05 03:11:28;;;;;;;0.40;0.40;;;;;;;23.25;5.27;101562.78;5055125;28;20542;-74
2022/03/05 03:13:54;;;;;;;0.40;0.40;;;;;;;23.27;5.03;101562.50;5037340;28;20412;-74
2022/03/05 03:16:19;;;;;;;0.75;0.60;;;;;;;23.20;5.08;101549.84;5054136;28;20387;-75
2022/03/05 03:18:45;;;;;;;0.40;0.40;;;;;;;23.26;5.27;101564.41;5054493;28;20029;-74
2022/03/05 03:21:10;;;;;;;0.32;0.32;;;;;;;23.23;5.14;101563.00;5054364;28;20022;-75
2022/03/05 03:23:35;;;;;;;0.40;0.40;;;;;;;23.21;5.10;101562.41;5053956;28;20052;-74
2022/03/05 03:26:01;;;;;;;0.30;0.30;;;;;;;23.23;5.08;101565.75;5054008;28;20501;-75
2022/03/05 03:28:26;;;;;;;0.30;0.30;;;;;;;23.22;5.06;101558.63;5053901;28;20037;-75
2022/03/05 03:30:53;;;;;;;0.45;0.40;;;;;;;23.22;4.88;101565.97;5053872;28;20479;-75
2022/03/05 03:33:18;;;;;;;0.40;0.40;;;;;;;23.21;4.88;101551.50;5054044;28;20017;-75
2022/03/05 03:35:43;;;;;;;0.28;0.28;;;;;;;23.23;4.98;101559.44;5054089;28;20029;-74
2022/03/05 03:38:09;;;;;;;0.40;0.40;;;;;;;23.22;4.85;101565.97;5054043;28;20383;-73
2022/03/05 03:40:34;;;;;;;0.60;0.50;;;;;;;23.23;4.78;101570.34;5053631;28;20032;-75
2022/03/05 03:43:00;;;;;;;0.40;0.40;;;;;;;23.21;4.91;101567.03;5053955;28;20089;-74
2022/03/05 03:45:25;;;;;;;0.50;0.50;;;;;;;23.22;4.98;101574.16;5053789;28;20079;-74
2022/03/05 03:47:51;;;;;;;0.50;0.50;;;;;;;23.20;4.93;101568.13;5053944;28;20077;-75
2022/03/05 03:50:18;;;;;;;0.77;0.40;;;;;;;23.20;4.71;101571.69;5053768;28;20478;-74
2022/03/05 03:52:44;;;;;;;0.40;0.40;;;;;;;23.16;4.88;101558.75;5053613;28;20460;-75
2022/03/05 03:55:10;;;;;;;0.40;0.40;;;;;;;23.20;5.00;101571.69;5053866;28;20096;-75
2022/03/05 03:57:36;;;;;;;0.57;0.50;;;;;;;23.19;4.99;101574.63;5053713;28;20032;-75
2022/03/05 04:00:03;;;;;;;0.40;0.40;;;;;;;23.19;4.88;101567.28;5053757;28;20025;-75
2022/03/05 04:02:29;;;;;;;0.43;0.43;;;;;;;23.19;4.83;101571.91;5053946;28;20017;-75
2022/03/05 04:04:54;;;;;;;0.40;0.40;;;;;;;23.20;4.78;101573.59;5053601;28;20379;-74
2022/03/05 04:10:04;;;;;;;0.40;0.40;;;;;;;23.21;4.96;101553.41;5053674;28;20401;-75
2022/03/05 04:12:29;;;;;;;0.50;0.43;;;;;;;23.20;5.00;101554.50;5053181;28;20035;-74
2022/03/05 04:14:55;;;;;;;0.50;0.50;;;;;;;23.20;4.58;101557.22;5053527;28;20024;-74
2022/03/05 04:17:22;;;;;;;0.40;0.40;;;;;;;23.17;4.69;101554.97;5053506;28;20495;-74
2022/03/05 04:19:47;;;;;;;0.45;0.45;;;;;;;23.11;4.82;101548.59;5053446;28;20021;-73
2022/03/05 04:22:12;;;;;;;0.85;0.52;;;;;;;23.19;4.72;101552.81;5035088;28;20528;-75
2022/03/05 04:24:38;;;;;;;0.40;0.40;;;;;;;23.17;4.78;101555.78;5053396;28;20029;-74
2022/03/05 04:27:03;;;;;;;0.43;0.40;;;;;;;23.17;4.80;101552.25;5055234;28;20372;-75
2022/03/05 04:29:29;;;;;;;0.50;0.50;;;;;;;23.15;4.63;101554.41;5060014;28;20487;-75
2022/03/05 04:31:54;;;;;;;0.50;0.50;;;;;;;23.17;4.79;101557.69;5059665;28;20028;-75
2022/03/05 04:34:20;;;;;;;0.30;0.30;;;;;;;23.13;4.85;101548.34;5060038;28;20127;-74
2022/03/05 04:36:45;;;;;;;0.30;0.30;;;;;;;23.17;4.67;101549.53;5060012;28;20071;-74
2022/03/05 04:39:10;;;;;;;0.50;0.50;;;;;;;23.15;4.76;101546.22;5060500;28;20459;-75
2022/03/05 04:41:36;;;;;;;0.40;0.40;;;;;;;23.15;4.62;101543.50;5059570;28;20468;-75
2022/03/05 04:44:01;;;;;;;0.40;0.40;;;;;;;23.12;4.70;101542.06;5059923;28;20028;-75
2022/03/05 04:46:27;;;;;;;0.28;0.28;;;;;;;23.14;4.75;101545.38;5059958;28;20167;-75
2022/03/05 04:48:52;;;;;;;0.50;0.50;;;;;;;23.13;4.75;101542.88;5059477;28;20021;-74
2022/03/05 04:51:18;;;;;;;0.47;0.47;;;;;;;23.14;4.65;101539.09;5059807;28;20036;-75
2022/03/05 04:53:43;;;;;;;0.40;0.40;;;;;;;23.12;4.50;101541.25;5059803;28;20033;-75
2022/03/05 04:56:08;;;;;;;0.50;0.50;;;;;;;23.13;4.60;101529.25;5059454;28;20533;-74
2022/03/05 04:58:34;;;;;;;0.40;0.40;;;;;;;23.13;4.47;101537.44;5059798;28;20033;-75
2022/03/05 05:01:01;;;;;;;0.50;0.40;;;;;;;23.15;4.75;101535.31;5059805;28;20020;-74
2022/03/05 05:03:27;;;;;;;1.00;0.40;;;;;;;23.14;4.46;101523.56;5059558;28;20463;-74
2022/03/05 05:05:52;;;;;;;0.35;0.35;;;;;;;23.14;4.52;101534.47;5059628;28;20047;-75
2022/03/05 05:08:17;;;;;;;0.40;0.40;;;;;;;23.13;4.27;101532.81;5059705;28;20040;-75
2022/03/05 05:10:43;;;;;;;0.90;0.43;;;;;;;23.13;4.56;101526.53;5059370;28;20460;-74
2022/03/05 05:13:08;;;;;;;0.38;0.38;;;;;;;23.12;4.34;101524.88;5059639;28;20029;-75
2022/03/05 05:15:34;;;;;;;0.40;0.40;;;;;;;23.12;4.33;101531.16;5059702;28;20021;-75
2022/03/05 05:18:00;;;;;;;0.30;0.30;;;;;;;23.11;4.44;101524.06;5059663;28;20477;-75
2022/03/05 05:20:25;;;;;;;0.30;0.30;;;;;;;23.12;4.38;101524.88;5059289;28;20040;-74
2022/03/05 05:22:51;;;;;;;0.40;0.40;;;;;;;23.12;4.49;101520.25;5059142;28;20057;-74
2022/03/05 05:25:16;;;;;;;0.32;0.30;;;;;;;23.11;4.40;101517.75;5041308;28;20025;-74
2022/03/05 05:27:42;;;;;;;0.47;0.40;;;;;;;23.10;4.37;101522.41;5059885;28;20058;-73
2022/03/05 05:30:08;;;;;;;0.30;0.30;;;;;;;23.08;4.37;101518.25;5059231;28;20223;-73
2022/03/05 05:32:34;;;;;;;0.40;0.40;;;;;;;23.10;4.36;101516.13;5059430;28;20036;-74
2022/03/05 05:34:59;;;;;;;0.45;0.40;;;;;;;23.05;4.48;101514.94;5059249;28;20104;-74
2022/03/05 05:37:25;;;;;;;0.40;0.40;;;;;;;23.09;4.45;101515.28;5041351;28;20403;-74
2022/03/05 05:39:50;;;;;;;0.40;0.40;;;;;;;23.10;4.47;101513.41;5055584;28;20033;-74
2022/03/05 05:42:15;;;;;;;0.30;0.30;;;;;;;23.10;4.30;101516.13;5056287;28;20021;-74
2022/03/05 05:44:41;;;;;;;0.47;0.47;;;;;;;23.10;4.46;101511.50;5056254;28;20472;-74
2022/03/05 05:47:06;;;;;;;0.40;0.40;;;;;;;23.10;4.52;101510.66;5056181;28;20027;-74
2022/03/05 05:49:32;;;;;;;0.75;0.40;;;;;;;23.09;4.39;101500.81;5056239;28;20029;-74
2022/03/05 05:51:57;;;;;;;0.40;0.40;;;;;;;23.09;4.36;101507.09;5055876;28;20444;-74
2022/03/05 05:54:23;;;;;;;0.38;0.38;;;;;;;23.07;4.44;101495.63;5056089;28;20025;-74
2022/03/05 05:56:49;;;;;;;0.30;0.30;;;;;;;23.09;4.53;101492.66;5055966;28;20032;-75
2022/03/05 05:59:15;;;;;;;0.43;0.40;;;;;;;23.08;4.70;101496.44;5055879;28;20527;-75
2022/03/05 06:01:41;;;;;;;0.38;0.30;;;;;;;23.06;4.58;101494.78;5055967;28;20463;-75
2022/03/05 06:04:06;;;;;;;0.38;0.38;;;;;;;23.06;4.59;101497.53;5055809;28;20099;-75
2022/03/05 06:06:32;;;;;;;0.40;0.40;;;;;;;23.05;4.59;101490.41;5055484;28;20476;-75
2022/03/05 06:08:57;;;;;;;0.30;0.30;;;;;;;23.10;4.72;101495.13;5055787;28;20082;-75
2022/03/05 06:11:22;;;;;;;0.40;0.40;;;;;;;23.10;4.47;101495.13;5055674;28;20031;-75
2022/03/05 06:13:48;;;;;;;0.40;0.40;;;;;;;23.09;4.61;101493.47;5055705;28;20468;-75
2022/03/05 06:16:13;;;;;;;0.40;0.40;;;;;;;23.09;4.65;101496.19;5055631;28;20033;-74
2022/03/05 06:18:39;;;;;;;0.60;0.60;;;;;;;23.09;4.56;101493.47;5055678;28;20021;-74
2022/03/05 06:21:05;;;;;;;0.55;0.55;;;;;;;23.08;4.46;101485.53;5055351;28;20025;-74
2022/03/05 06:23:31;;;;;;;0.40;0.40;;;;;;;23.08;4.52;101491.81;5055580;28;20049;-74
2022/03/05 06:25:57;;;;;;;0.40;0.40;;;;;;;23.08;4.65;101499.16;5055565;28;20083;-74
2022/03/05 06:28:22;;;;;;;0.60;0.50;;;;;;;23.10;4.70;101499.75;5037749;28;20059;-74
2022/03/05 06:30:47;;;;;;;0.50;0.50;;;;;;;23.09;4.66;101503.56;5055468;28;20380;-74
2022/03/05 06:33:13;;;;;;;0.50;0.50;;;;;;;23.11;4.89;101495.94;5055006;28;20470;-74
2022/03/05 06:35:38;;;;;;;0.40;0.40;;;;;;;23.09;4.93;101500.81;5055250;28;20083;-75
2022/03/05 06:38:04;;;;;;;0.35;0.35;;;;;;;23.08;4.86;101502.72;5055220;28;20017;-75
2022/03/05 06:40:29;;;;;;;0.40;0.40;;;;;;;23.02;4.96;101490.84;5054837;28;20499;-75
2022/03/05 06:42:55;;;;;;;0.50;0.50;;;;;;;23.06;4.99;101505.69;5054803;28;20032;-75
2022/03/05 06:45:21;;;;;;;0.50;0.50;;;;;;;23.07;4.92;101503.78;5054840;28;20023;-75
2022/03/05 06:47:46;;;;;;;0.50;0.50;;;;;;;23.07;4.87;101503.78;5054667;28;20061;-75
2022/03/05 06:50:12;;;;;;;0.50;0.45;;;;;;;23.06;5.25;101505.69;5054710;28;20025;-75
2022/03/05 06:52:37;;;;;;;0.40;0.40;;;;;;;23.09;5.16;101498.09;5054932;28;20021;-76
2022/03/05 06:55:03;;;;;;;0.40;0.40;;;;;;;23.11;5.12;101504.13;5054665;28;20029;-74
2022/03/05 06:57:28;;;;;;;0.50;0.50;;;;;;;23.13;5.09;101508.28;5054831;28;20056;-74
2022/03/05 06:59:54;;;;;;;0.47;0.47;;;;;;;23.11;5.25;101499.53;5054802;28;20087;-75
2022/03/05 07:02:20;;;;;;;0.50;0.50;;;;;;;23.12;5.42;101508.53;5054727;28;20383;-74
2022/03/05 07:04:45;;;;;;;0.55;0.55;;;;;;;23.12;5.32;101505.78;5054677;28;20408;-74
2022/03/05 07:07:11;;;;;;;0.40;0.40;;;;;;;23.12;5.54;101506.63;5054658;28;20433;-74
2022/03/05 07:09:36;;;;;;;0.40;0.40;;;;;;;23.14;5.45;101511.81;5054646;28;20044;-74
2022/03/05 07:12:02;;;;;;;0.68;0.50;;;;;;;23.14;5.59;101503.66;5054578;28;20486;-74
2022/03/05 07:14:27;;;;;;;0.40;0.40;;;;;;;23.15;5.65;101502.59;5054181;28;20039;-74
2022/03/05 07:16:53;;;;;;;0.50;0.50;;;;;;;23.16;5.68;101504.22;5054477;28;20041;-74
2022/03/05 07:19:18;;;;;;;0.77;0.77;;;;;;;23.11;5.78;101498.69;5054054;28;20463;-74
2022/03/05 07:21:44;;;;;;;0.77;0.55;;;;;;;23.15;5.82;101510.75;5054406;28;20024;-75
2022/03/05 07:24:09;;;;;;;0.70;0.60;;;;;;;23.15;5.74;101497.94;5053835;28;20048;-75
2022/03/05 07:26:35;;;;;;;0.70;0.70;;;;;;;23.15;6.03;101508.03;5053935;28;20391;-74
2022/03/05 07:29:00;;;;;;;0.50;0.50;;;;;;;23.15;6.02;101500.69;5054312;28;20021;-75
2022/03/05 07:31:26;;;;;;;0.40;0.40;;;;;;;23.18;5.94;101502.06;5053937;28;20534;-74
2022/03/05 07:33:51;;;;;;;0.50;0.50;;;;;;;23.16;5.91;101496.03;5054277;28;20033;-73
2022/03/05 07:36:17;;;;;;;0.77;0.60;;;;;;;23.17;6.13;101495.81;5054124;28;20029;-75
2022/03/05 07:38:44;;;;;;;0.60;0.60;;;;;;;23.16;6.31;101493.31;5053990;28;20021;-75
2022/03/05 07:41:10;;;;;;;0.50;0.50;;;;;;;23.16;6.16;101493.31;5053811;28;20021;-75
2022/03/05 07:43:35;;;;;;;0.57;0.57;;;;;;;23.17;6.46;101490.34;5054025;28;20053;-74
2022/03/05 07:46:01;;;;;;;0.57;0.57;;;;;;;23.19;6.37;101481.94;5053632;28;20408;-75
2022/03/05 07:48:26;;;;;;;0.45;0.45;;;;;;;23.19;6.35;101481.94;5053868;28;20029;-75
2022/03/05 07:50:52;;;;;;;0.50;0.50;;;;;;;23.20;6.59;101478.13;5053876;28;20032;-75
2022/03/05 07:53:17;;;;;;;0.57;0.47;;;;;;;23.20;6.61;101483.59;5053897;28;20456;-74
2022/03/05 07:55:42;;;;;;;0.70;0.50;;;;;;;23.20;6.68;101483.59;5053818;28;20074;-75
2022/03/05 07:58:08;;;;;;;0.60;0.60;;;;;;;23.18;6.71;101475.66;5054575;28;20029;-74
2022/03/05 08:00:33;;;;;;;0.60;0.60;;;;;;;23.18;6.74;101481.09;5053772;28;20021;-74
2022/03/05 08:02:59;;;;;;;0.60;0.60;;;;;;;23.19;6.79;101477.28;5052958;28;20357;-73
2022/03/05 08:05:25;;;;;;;0.80;0.65;;;;;;;23.21;7.01;101474.31;5053714;28;20025;-75
2022/03/05 08:07:52;;;;;;;0.60;0.60;;;;;;;23.20;7.07;101467.22;5053532;28;20073;-75
2022/03/05 08:10:17;;;;;;;1.00;0.70;;;;;;;23.23;7.06;101467.56;5036083;28;20043;-74
2022/03/05 08:12:43;;;;;;;0.60;0.60;;;;;;;23.20;7.12;101459.06;5053607;28;20472;-75
2022/03/05 08:15:09;;;;;;;0.60;0.60;;;;;;;23.22;7.06;101460.44;5053526;28;20086;-74
2022/03/05 08:17:35;;;;;;;0.63;0.63;;;;;;;23.21;7.22;101449.78;5053489;28;20098;-75
2022/03/05 08:20:00;;;;;;;0.50;0.50;;;;;;;23.23;7.15;101443.03;5053557;28;20459;-74
2022/03/05 08:22:25;;;;;;;0.57;0.43;;;;;;;23.27;7.18;101448.81;5052929;28;20471;-74
2022/03/05 08:24:51;;;;;;;0.50;0.50;;;;;;;23.25;7.38;101451.78;5035569;28;20021;-74
2022/03/05 08:27:16;;;;;;;0.43;0.43;;;;;;;23.21;7.30;101442.41;5053351;28;20045;-74
2022/03/05 08:29:42;;;;;;;0.60;0.60;;;;;;;23.23;7.32;101443.03;5053486;28;20031;-74
2022/03/05 08:32:08;;;;;;;0.85;0.70;;;;;;;23.27;7.38;101435.16;5053210;28;20078;-75
2022/03/05 08:34:34;;;;;;;0.52;0.52;;;;;;;23.28;7.65;101436.81;5053057;28;20383;-75
2022/03/05 08:36:59;;;;;;;0.60;0.60;;;;;;;23.28;7.58;101438.72;5053416;28;20036;-75
2022/03/05 08:39:25;;;;;;;0.45;0.45;;;;;;;23.27;7.60;101440.63;5053033;28;20521;-74
2022/03/05 08:41:51;;;;;;;0.50;0.50;;;;;;;23.27;7.67;101437.91;5053084;28;20431;-75
2022/03/05 08:44:16;;;;;;;0.50;0.50;;;;;;;23.33;7.55;101436.06;5053007;28;20025;-75
2022/03/05 08:46:42;;;;;;;0.40;0.40;;;;;;;23.32;7.48;101437.97;5053208;28;20033;-75
2022/03/05 08:49:07;;;;;;;0.75;0.70;;;;;;;23.34;7.59;101435.81;5053242;28;20379;-75
2022/03/05 08:51:32;;;;;;;0.50;0.50;;;;;;;23.33;7.63;101430.63;5053192;28;20028;-75
2022/03/05 08:53:58;;;;;;;0.50;0.50;;;;;;;23.35;7.83;101428.47;5053247;28;20029;-75
2022/03/05 08:56:23;;;;;;;0.50;0.50;;;;;;;23.33;7.85;101419.72;5053114;28;20490;-74
2022/03/05 08:58:49;;;;;;;0.68;0.50;;;;;;;23.34;7.91;101418.66;5052806;28;20032;-74
2022/03/05 09:01:14;;;;;;;0.50;0.50;;;;;;;23.36;7.96;101421.94;5053071;28;20029;-75
2022/03/05 09:03:40;;;;;;;0.60;0.60;;;;;;;23.37;7.72;101429.88;5053173;28;20021;-74
2022/03/05 09:06:06;;;;;;;0.40;0.40;;;;;;;23.38;7.99;101423.34;5052958;28;20104;-74
2022/03/05 09:08:31;;;;;;;0.57;0.50;;;;;;;23.37;7.86;101416.25;5052800;28;20025;-76
2022/03/05 09:10:57;;;;;;;0.70;0.70;;;;;;;23.38;7.89;101423.34;5052679;28;20017;-75
2022/03/05 09:13:22;;;;;;;0.70;0.68;;;;;;;23.36;7.81;101411.03;5054049;28;20021;-74
2022/03/05 09:15:47;;;;;;;0.35;0.35;;;;;;;23.41;7.83;101424.75;5056458;28;20425;-76
2022/03/05 09:18:13;;;;;;;0.73;0.57;;;;;;;23.40;8.04;101418.47;5056727;28;20021;-74
2022/03/05 09:20:38;;;;;;;0.80;0.60;;;;;;;23.44;7.90;101416.09;5056774;28;20025;-74
2022/03/05 09:23:04;;;;;;;0.50;0.50;;;;;;;23.41;7.95;101403.75;5056180;28;20446;-74
2022/03/05 09:25:30;;;;;;;0.70;0.60;;;;;;;23.43;7.97;101407.03;5056636;28;20021;-75
2022/03/05 09:27:55;;;;;;;0.70;0.60;;;;;;;23.44;7.98;101403.25;5056846;28;20033;-75
2022/03/05 09:30:21;;;;;;;0.50;0.50;;;;;;;23.46;7.93;101393.97;5038441;28;20029;-74
2022/03/05 09:32:46;;;;;;;0.68;0.65;;;;;;;23.44;7.97;101400.53;5056888;28;20017;-74
2022/03/05 09:35:11;;;;;;;0.50;0.50;;;;;;;23.48;8.19;101400.03;5056454;28;20367;-74
2022/03/05 09:37:37;;;;;;;0.50;0.50;;;;;;;23.50;8.17;101395.16;5056415;28;20486;-75
2022/03/05 09:40:03;;;;;;;0.47;0.47;;;;;;;23.45;8.06;101393.16;5056397;28;20459;-75
2022/03/05 09:42:28;;;;;;;0.50;0.50;;;;;;;23.49;8.12;101393.50;5057074;28;20021;-75
2022/03/05 09:44:54;;;;;;;0.55;0.55;;;;;;;23.51;8.22;101388.59;5055962;28;20048;-74
2022/03/05 09:47:19;;;;;;;1.00;0.70;;;;;;;23.49;8.26;101386.16;5055812;28;20025;-74
2022/03/05 09:49:45;;;;;;;0.60;0.55;;;;;;;23.53;8.37;101386.47;5021629;28;20063;-74
2022/03/05 09:52:10;;;;;;;0.50;0.50;;;;;;;23.52;8.23;101373.91;5056158;28;20029;-74
2022/03/05 09:54:36;;;;;;;0.55;0.52;;;;;;;23.52;8.20;101374.72;5056111;28;20048;-74
2022/03/05 09:57:09;;;;;;;0.40;0.40;;;;;;;23.52;8.41;101374.72;5055674;28;20490;-74
2022/03/05 09:59:34;;;;;;;0.50;0.50;;;;;;;23.54;8.34;101369.00;5055903;28;20074;-74
2022/03/05 10:02:00;;;;;;;0.52;0.52;;;;;;;23.56;8.50;101366.84;5055792;28;20029;-75
2022/03/05 10:04:25;;;;;;;0.47;0.40;;;;;;;23.57;8.51;101352.97;5055850;28;20460;-74
2022/03/05 10:07:16;;;;;;;0.68;0.50;;;;;;;23.60;8.72;101351.66;5055842;28;20367;-74
2022/03/05 10:09:46;;;;;;;0.45;0.43;;;;;;;23.55;8.49;101344.22;5055648;28;20091;-73
2022/03/05 10:12:31;;;;;;;0.40;0.40;;;;;;;23.59;8.61;101344.53;5055888;28;20039;-75
2022/03/05 10:15:06;;;;;;;0.40;0.40;;;;;;;23.58;8.86;101337.44;5055643;28;20021;-73
2022/03/05 10:17:55;;;;;;;0.40;0.40;;;;;;;23.58;8.61;101327.34;5055660;28;20036;-75
2022/03/05 10:20:28;;;;;;;0.30;0.30;;;;;;;23.55;8.60;101314.19;5055613;28;20032;-75
2022/03/05 10:22:54;;;;;;;0.95;0.40;;;;;;;23.56;8.67;101315.00;5055728;28;20045;-75
2022/03/05 10:25:50;;;;;;;0.30;0.30;;;;;;;23.54;8.73;101303.53;5054957;28;20098;-74
2022/03/05 10:28:26;;;;;;;0.38;0.38;;;;;;;23.56;8.71;101304.09;5044841;28;20513;-74
2022/03/05 10:30:58;;;;;;;0.35;0.35;;;;;;;23.54;8.81;101290.75;5055108;28;20402;-74
2022/03/05 10:33:43;;;;;;;0.40;0.40;;;;;;;23.46;8.71;101277.53;5055403;28;20064;-74
2022/03/05 10:36:16;;;;;;;0.25;0.25;;;;;;;23.48;8.95;101271.81;5054955;28;20032;-75
2022/03/05 10:39:02;;;;;;;0.30;0.30;;;;;;;23.57;8.93;101275.75;5055884;28;20047;-74
2022/03/05 10:41:35;;;;;;;0.20;0.20;;;;;;;23.52;9.14;101267.50;5055608;28;20041;-75
2022/03/05 10:44:05;;;;;;;0.20;0.20;;;;;;;23.52;9.13;101262.03;5037078;28;20492;-74
2022/03/05 10:46:46;;;;;;;0.30;0.30;;;;;;;23.50;9.22;101254.09;5054768;28;20490;-75
2022/03/05 10:49:20;;;;;;;0.30;0.30;;;;;;;23.52;9.17;101246.50;5055024;28;20034;-74
2022/03/05 10:52:07;;;;;;;0.20;0.20;;;;;;;23.52;9.22;101240.22;5054995;28;20103;-75
2022/03/05 10:54:42;;;;;;;1.48;0.30;;;;;;;23.54;9.30;101244.34;5054935;28;20055;-75
2022/03/05 10:57:18;;;;;;;0.32;0.30;;;;;;;23.50;9.02;101236.94;5054853;28;20352;-74
2022/03/05 10:59:44;;;;;;;0.30;0.30;;;;;;;23.51;9.36;101233.09;5054906;28;20380;-74
2022/03/05 11:02:10;;;;;;;0.28;0.28;;;;;;;23.47;9.38;101237.44;5054604;28;20036;-74
2022/03/05 11:04:37;;;;;;;0.20;0.20;;;;;;;23.51;9.28;101238.56;5054330;28;20021;-75
2022/03/05 11:07:03;;;;;;;0.20;0.20;;;;;;;23.47;9.09;101231.97;5054740;28;20060;-74
2022/03/05 11:09:29;;;;;;;0.30;0.30;;;;;;;23.47;9.25;101215.59;5054477;28;20172;-75
2022/03/05 11:11:55;;;;;;;0.20;0.20;;;;;;;23.48;9.41;101220.00;5054730;28;20064;-75
2022/03/05 11:14:20;;;;;;;0.40;0.40;;;;;;;23.48;9.22;101222.72;5054770;28;20022;-76
2022/03/05 11:16:45;;;;;;;0.20;0.20;;;;;;;23.47;9.24;101208.22;5054409;28;20091;-75
2022/03/05 11:19:11;;;;;;;0.50;0.30;;;;;;;23.44;9.36;101206.84;5054600;28;20043;-75
2022/03/05 11:21:36;;;;;;;0.20;0.20;;;;;;;23.46;9.11;101198.41;5054153;28;20024;-74
2022/03/05 11:24:02;;;;;;;0.15;0.15;;;;;;;23.48;9.14;101201.72;5054015;28;20095;-75
2022/03/05 11:26:29;;;;;;;0.28;0.20;;;;;;;23.43;9.38;101186.09;5020014;28;20033;-74
2022/03/05 11:28:54;;;;;;;0.20;0.20;;;;;;;23.43;9.30;101183.38;5053831;28;20037;-74
2022/03/05 11:31:24;;;;;;;0.20;0.20;;;;;;;23.49;9.14;101186.16;5054259;28;20028;-75
2022/03/05 11:33:50;;;;;;;0.20;0.20;;;;;;;23.48;9.21;101184.53;5053827;28;20025;-74